sensor_id;sensor_type;location;lat;lon;timestamp;pressure;altitude;pressure_sealevel;temperature;humidity
76460;BME280;65299;46.084;18.762;2023-02-22T00:02:49;100708.38;;;5.86;67.71
76460;BME280;65299;46.084;18.762;2023-02-22T00:05:52;100704.63;;;5.94;67.40
76460;BME280;65299;46.084;18.762;2023-02-22T00:08:53;100705.16;;;5.84;67.19
76460;BME280;65299;46.084;18.762;2023-02-22T00:11:54;100702.34;;;5.79;66.96
76460;BME280;65299;46.084;18.762;2023-02-22T00:14:55;100698.81;;;6.03;66.40
76460;BME280;65299;46.084;18.762;2023-02-22T00:17:56;100697.22;;;6.02;66.58
76460;BME280;65299;46.084;18.762;2023-02-22T00:20:58;100698.41;;;5.88;67.41
76460;BME280;65299;46.084;18.762;2023-02-22T00:23:59;100695.41;;;5.84;67.76
76460;BME280;65299;46.084;18.762;2023-02-22T00:26:59;100690.34;;;5.83;67.45
76460;BME280;65299;46.084;18.762;2023-02-22T00:30:00;100690.78;;;5.80;67.51
76460;BME280;65299;46.084;18.762;2023-02-22T00:33:00;100682.88;;;5.80;67.38
76460;BME280;65299;46.084;18.762;2023-02-22T00:36:01;100686.41;;;5.74;67.50
76460;BME280;65299;46.084;18.762;2023-02-22T00:39:02;100686.84;;;5.71;67.86
76460;BME280;65299;46.084;18.762;2023-02-22T00:42:02;100685.94;;;5.77;67.41
76460;BME280;65299;46.084;18.762;2023-02-22T00:45:04;100675.72;;;5.87;67.02
76460;BME280;65299;46.084;18.762;2023-02-22T00:48:05;100684.13;;;5.96;66.87
76460;BME280;65299;46.084;18.762;2023-02-22T00:51:06;100678.34;;;5.87;67.08
76460;BME280;65299;46.084;18.762;2023-02-22T00:54:06;100683.63;;;5.69;67.29
76460;BME280;65299;46.084;18.762;2023-02-22T00:57:07;100679.28;;;5.74;67.54
76460;BME280;65299;46.084;18.762;2023-02-22T01:00:13;100673.66;;;5.89;66.80
76460;BME280;65299;46.084;18.762;2023-02-22T01:03:17;100676.53;;;5.88;66.92
76460;BME280;65299;46.084;18.762;2023-02-22T01:06:19;100679.53;;;5.73;67.30
76460;BME280;65299;46.084;18.762;2023-02-22T01:09:19;100674.75;;;5.81;69.19
76460;BME280;65299;46.084;18.762;2023-02-22T01:12:20;100682.81;;;6.05;70.16
76460;BME280;65299;46.084;18.762;2023-02-22T01:15:24;100685.38;;;5.93;68.40
76460;BME280;65299;46.084;18.762;2023-02-22T01:18:26;100683.50;;;6.12;66.32
76460;BME280;65299;46.084;18.762;2023-02-22T01:21:26;100689.31;;;6.02;68.08
76460;BME280;65299;46.084;18.762;2023-02-22T01:24:27;100687.78;;;5.95;67.86
76460;BME280;65299;46.084;18.762;2023-02-22T01:27:27;100694.59;;;6.02;67.06
76460;BME280;65299;46.084;18.762;2023-02-22T01:30:31;100692.31;;;6.06;67.23
76460;BME280;65299;46.084;18.762;2023-02-22T01:33:32;100700.66;;;6.03;67.58
76460;BME280;65299;46.084;18.762;2023-02-22T01:36:33;100697.84;;;6.16;67.35
76460;BME280;65299;46.084;18.762;2023-02-22T01:39:33;100691.81;;;5.97;67.44
76460;BME280;65299;46.084;18.762;2023-02-22T01:42:34;100687.75;;;6.13;67.20
76460;BME280;65299;46.084;18.762;2023-02-22T01:45:41;100691.38;;;6.00;67.32
76460;BME280;65299;46.084;18.762;2023-02-22T01:48:45;100693.53;;;6.03;67.44
76460;BME280;65299;46.084;18.762;2023-02-22T01:51:50;100704.25;;;6.20;67.38
76460;BME280;65299;46.084;18.762;2023-02-22T01:54:56;100693.22;;;6.11;66.88
76460;BME280;65299;46.084;18.762;2023-02-22T01:57:58;100696.59;;;6.18;67.44
76460;BME280;65299;46.084;18.762;2023-02-22T02:00:58;100690.59;;;6.11;67.93
76460;BME280;65299;46.084;18.762;2023-02-22T02:04:04;100691.91;;;6.20;67.17
76460;BME280;65299;46.084;18.762;2023-02-22T02:07:08;100686.94;;;6.12;67.25
76460;BME280;65299;46.084;18.762;2023-02-22T02:10:13;100689.66;;;6.06;67.60
76460;BME280;65299;46.084;18.762;2023-02-22T02:13:14;100686.53;;;5.97;67.93
76460;BME280;65299;46.084;18.762;2023-02-22T02:16:15;100681.91;;;6.11;67.29
76460;BME280;65299;46.084;18.762;2023-02-22T02:19:46;100682.16;;;5.91;67.82
76460;BME280;65299;46.084;18.762;2023-02-22T02:23:02;100684.66;;;5.86;68.39
76460;BME280;65299;46.084;18.762;2023-02-22T02:42:54;100676.69;;;5.38;69.75
76460;BME280;65299;46.084;18.762;2023-02-22T02:49:11;100683.94;;;5.43;70.14
76460;BME280;65299;46.084;18.762;2023-02-22T02:52:15;100683.34;;;5.23;70.68
76460;BME280;65299;46.084;18.762;2023-02-22T02:55:18;100680.94;;;5.21;70.67
76460;BME280;65299;46.084;18.762;2023-02-22T02:58:21;100677.63;;;5.26;70.49
76460;BME280;65299;46.084;18.762;2023-02-22T03:08:06;100673.91;;;5.51;69.68
76460;BME280;65299;46.084;18.762;2023-02-22T03:17:46;100670.59;;;5.20;70.52
76460;BME280;65299;46.084;18.762;2023-02-22T03:31:02;100670.41;;;5.21;70.09
76460;BME280;65299;46.084;18.762;2023-02-22T03:34:08;100666.44;;;5.30;69.54
76460;BME280;65299;46.084;18.762;2023-02-22T03:37:14;100681.28;;;5.07;70.15
76460;BME280;65299;46.084;18.762;2023-02-22T03:40:20;100672.28;;;5.14;70.18
76460;BME280;65299;46.084;18.762;2023-02-22T03:43:30;100672.56;;;5.06;70.23
76460;BME280;65299;46.084;18.762;2023-02-22T03:46:33;100668.47;;;4.92;70.58
76460;BME280;65299;46.084;18.762;2023-02-22T03:49:39;100664.22;;;4.66;71.27
76460;BME280;65299;46.084;18.762;2023-02-22T03:52:43;100666.91;;;4.84;70.58
76460;BME280;65299;46.084;18.762;2023-02-22T03:55:46;100676.84;;;4.82;70.34
76460;BME280;65299;46.084;18.762;2023-02-22T03:58:50;100681.69;;;4.79;70.79
76460;BME280;65299;46.084;18.762;2023-02-22T04:01:52;100686.78;;;4.80;70.55
76460;BME280;65299;46.084;18.762;2023-02-22T04:04:53;100687.81;;;4.97;70.04
76460;BME280;65299;46.084;18.762;2023-02-22T04:07:55;100691.50;;;5.15;69.57
76460;BME280;65299;46.084;18.762;2023-02-22T04:10:55;100695.16;;;5.14;69.41
76460;BME280;65299;46.084;18.762;2023-02-22T04:13:56;100694.44;;;5.07;69.67
76460;BME280;65299;46.084;18.762;2023-02-22T04:16:57;100684.69;;;5.07;69.21
76460;BME280;65299;46.084;18.762;2023-02-22T04:19:57;100695.38;;;4.87;70.15
76460;BME280;65299;46.084;18.762;2023-02-22T04:22:58;100698.59;;;4.89;69.73
76460;BME280;65299;46.084;18.762;2023-02-22T04:25:58;100699.41;;;4.90;70.29
76460;BME280;65299;46.084;18.762;2023-02-22T04:28:59;100696.00;;;5.07;69.95
76460;BME280;65299;46.084;18.762;2023-02-22T04:31:59;100689.84;;;4.95;70.29
76460;BME280;65299;46.084;18.762;2023-02-22T04:34:59;100692.50;;;4.95;70.59
76460;BME280;65299;46.084;18.762;2023-02-22T04:38:00;100695.16;;;5.14;70.15
76460;BME280;65299;46.084;18.762;2023-02-22T04:41:00;100699.13;;;5.23;69.28
76460;BME280;65299;46.084;18.762;2023-02-22T04:44:01;100695.91;;;5.21;69.25
76460;BME280;65299;46.084;18.762;2023-02-22T04:47:01;100695.44;;;5.05;69.34
76460;BME280;65299;46.084;18.762;2023-02-22T04:50:04;100696.78;;;4.65;70.86
76460;BME280;65299;46.084;18.762;2023-02-22T04:53:05;100696.25;;;4.81;70.32
76460;BME280;65299;46.084;18.762;2023-02-22T04:56:05;100690.25;;;4.74;69.73
76460;BME280;65299;46.084;18.762;2023-02-22T04:59:06;100693.91;;;4.73;69.97
76460;BME280;65299;46.084;18.762;2023-02-22T05:02:06;100704.41;;;4.73;70.02
76460;BME280;65299;46.084;18.762;2023-02-22T05:05:07;100704.44;;;4.67;70.74
76460;BME280;65299;46.084;18.762;2023-02-22T05:08:07;100706.72;;;4.88;70.54
76460;BME280;65299;46.084;18.762;2023-02-22T05:11:08;100706.66;;;4.94;69.80
76460;BME280;65299;46.084;18.762;2023-02-22T05:14:08;100713.69;;;4.76;70.18
76460;BME280;65299;46.084;18.762;2023-02-22T05:17:09;100706.66;;;4.94;69.74
76460;BME280;65299;46.084;18.762;2023-02-22T05:20:26;100698.47;;;4.84;69.41
76460;BME280;65299;46.084;18.762;2023-02-22T05:23:27;100705.91;;;4.63;69.71
76460;BME280;65299;46.084;18.762;2023-02-22T05:26:27;100703.47;;;4.37;70.55
76460;BME280;65299;46.084;18.762;2023-02-22T05:29:28;100716.13;;;4.15;71.61
76460;BME280;65299;46.084;18.762;2023-02-22T05:32:29;100705.88;;;4.07;71.98
76460;BME280;65299;46.084;18.762;2023-02-22T05:35:29;100710.53;;;4.05;72.32
76460;BME280;65299;46.084;18.762;2023-02-22T05:38:29;100710.53;;;4.05;72.26
76460;BME280;65299;46.084;18.762;2023-02-22T05:41:30;100714.16;;;4.04;72.52
76460;BME280;65299;46.084;18.762;2023-02-22T05:44:30;100717.94;;;4.14;72.04
76460;BME280;65299;46.084;18.762;2023-02-22T05:47:31;100720.13;;;4.17;72.31
76460;BME280;65299;46.084;18.762;2023-02-22T05:50:31;100723.78;;;4.16;72.16
76460;BME280;65299;46.084;18.762;2023-02-22T05:53:32;100736.31;;;4.14;72.11
76460;BME280;65299;46.084;18.762;2023-02-22T05:56:33;100734.03;;;4.25;72.17
76460;BME280;65299;46.084;18.762;2023-02-22T05:59:33;100736.91;;;4.23;72.24
76460;BME280;65299;46.084;18.762;2023-02-22T06:02:33;100739.69;;;4.28;71.70
76460;BME280;65299;46.084;18.762;2023-02-22T06:05:34;100749.22;;;4.22;72.37
76460;BME280;65299;46.084;18.762;2023-02-22T06:08:35;100746.38;;;4.24;72.35
76460;BME280;65299;46.084;18.762;2023-02-22T06:11:35;100748.41;;;4.22;71.87
76460;BME280;65299;46.084;18.762;2023-02-22T06:14:36;100743.72;;;4.31;71.92
76460;BME280;65299;46.084;18.762;2023-02-22T06:17:36;100749.91;;;4.43;71.74
76460;BME280;65299;46.084;18.762;2023-02-22T06:20:38;100743.81;;;4.49;71.54
76460;BME280;65299;46.084;18.762;2023-02-22T06:23:39;100744.66;;;4.43;71.99
76460;BME280;65299;46.084;18.762;2023-02-22T06:26:39;100748.66;;;4.52;72.20
76460;BME280;65299;46.084;18.762;2023-02-22T06:29:43;100754.59;;;4.72;71.77
76460;BME280;65299;46.084;18.762;2023-02-22T06:32:45;100752.81;;;4.90;71.23
76460;BME280;65299;46.084;18.762;2023-02-22T06:35:46;100768.16;;;5.18;70.89
76460;BME280;65299;46.084;18.762;2023-02-22T06:38:46;100759.94;;;5.33;70.64
76460;BME280;65299;46.084;18.762;2023-02-22T06:41:47;100761.19;;;5.48;70.79
76460;BME280;65299;46.084;18.762;2023-02-22T06:44:47;100766.41;;;5.73;70.31
76460;BME280;65299;46.084;18.762;2023-02-22T06:47:47;100772.16;;;5.88;70.45
76460;BME280;65299;46.084;18.762;2023-02-22T06:50:48;100771.09;;;6.07;70.25
76460;BME280;65299;46.084;18.762;2023-02-22T06:53:49;100768.28;;;6.38;69.54
76460;BME280;65299;46.084;18.762;2023-02-22T06:56:49;100773.75;;;6.66;69.17
76460;BME280;65299;46.084;18.762;2023-02-22T06:59:50;100769.94;;;6.92;68.90
76460;BME280;65299;46.084;18.762;2023-02-22T07:02:54;100776.72;;;7.23;68.39
76460;BME280;65299;46.084;18.762;2023-02-22T07:05:55;100779.28;;;7.52;67.46
76460;BME280;65299;46.084;18.762;2023-02-22T07:08:55;100787.25;;;7.92;66.59
76460;BME280;65299;46.084;18.762;2023-02-22T07:11:55;100784.31;;;8.17;66.09
76460;BME280;65299;46.084;18.762;2023-02-22T07:14:56;100787.72;;;8.41;65.55
76460;BME280;65299;46.084;18.762;2023-02-22T07:17:57;100791.56;;;8.61;65.52
76460;BME280;65299;46.084;18.762;2023-02-22T07:20:57;100789.88;;;8.72;65.98
76460;BME280;65299;46.084;18.762;2023-02-22T07:23:58;100799.28;;;8.96;65.65
76460;BME280;65299;46.084;18.762;2023-02-22T07:26:59;100796.41;;;9.31;65.17
76460;BME280;65299;46.084;18.762;2023-02-22T07:30:00;100796.47;;;9.52;64.76
76460;BME280;65299;46.084;18.762;2023-02-22T07:33:05;100790.50;;;9.62;64.20
76460;BME280;65299;46.084;18.762;2023-02-22T07:36:06;100782.31;;;9.63;64.04
76460;BME280;65299;46.084;18.762;2023-02-22T07:39:07;100788.97;;;9.66;64.41
76460;BME280;65299;46.084;18.762;2023-02-22T07:42:08;100791.50;;;9.77;63.78
76460;BME280;65299;46.084;18.762;2023-02-22T07:45:08;100787.78;;;9.95;63.36
76460;BME280;65299;46.084;18.762;2023-02-22T07:48:09;100790.00;;;10.03;63.20
76460;BME280;65299;46.084;18.762;2023-02-22T07:51:14;100785.78;;;10.24;62.90
76460;BME280;65299;46.084;18.762;2023-02-22T07:54:14;100779.63;;;10.45;62.36
76460;BME280;65299;46.084;18.762;2023-02-22T07:57:15;100787.41;;;10.51;62.49
76460;BME280;65299;46.084;18.762;2023-02-22T08:03:25;100782.16;;;10.83;62.28
76460;BME280;65299;46.084;18.762;2023-02-22T08:06:25;100774.94;;;11.10;61.82
76460;BME280;65299;46.084;18.762;2023-02-22T08:09:27;100775.34;;;11.29;61.29
76460;BME280;65299;46.084;18.762;2023-02-22T08:12:27;100774.56;;;11.33;60.90
76460;BME280;65299;46.084;18.762;2023-02-22T08:15:30;100776.00;;;11.51;60.39
76460;BME280;65299;46.084;18.762;2023-02-22T08:18:31;100770.59;;;11.78;59.42
76460;BME280;65299;46.084;18.762;2023-02-22T08:21:31;100773.88;;;11.95;59.06
76460;BME280;65299;46.084;18.762;2023-02-22T08:24:32;100767.41;;;11.76;59.28
76460;BME280;65299;46.084;18.762;2023-02-22T08:27:32;100768.31;;;12.01;59.05
76460;BME280;65299;46.084;18.762;2023-02-22T08:30:34;100776.38;;;12.21;58.46
76460;BME280;65299;46.084;18.762;2023-02-22T08:33:34;100774.56;;;12.37;59.31
76460;BME280;65299;46.084;18.762;2023-02-22T08:36:40;100773.78;;;12.57;57.51
76460;BME280;65299;46.084;18.762;2023-02-22T08:39:42;100776.47;;;12.77;56.39
76460;BME280;65299;46.084;18.762;2023-02-22T08:42:43;100770.13;;;12.88;55.93
76460;BME280;65299;46.084;18.762;2023-02-22T08:45:47;100766.16;;;13.10;54.88
76460;BME280;65299;46.084;18.762;2023-02-22T08:48:51;100764.00;;;13.17;54.33
76460;BME280;65299;46.084;18.762;2023-02-22T08:51:51;100764.50;;;13.45;53.41
76460;BME280;65299;46.084;18.762;2023-02-22T08:54:52;100762.84;;;13.74;52.83
76460;BME280;65299;46.084;18.762;2023-02-22T08:57:52;100756.13;;;13.81;52.10
76460;BME280;65299;46.084;18.762;2023-02-22T09:00:53;100762.03;;;13.78;52.14
76460;BME280;65299;46.084;18.762;2023-02-22T09:03:54;100762.94;;;13.44;52.94
76460;BME280;65299;46.084;18.762;2023-02-22T09:06:56;100760.50;;;13.42;53.48
76460;BME280;65299;46.084;18.762;2023-02-22T09:09:57;100757.00;;;13.57;52.98
76460;BME280;65299;46.084;18.762;2023-02-22T09:12:58;100754.25;;;13.87;51.71
76460;BME280;65299;46.084;18.762;2023-02-22T09:15:59;100758.72;;;14.01;52.15
76460;BME280;65299;46.084;18.762;2023-02-22T09:19:00;100759.19;;;14.19;50.36
76460;BME280;65299;46.084;18.762;2023-02-22T09:22:00;100751.00;;;14.00;50.69
76460;BME280;65299;46.084;18.762;2023-02-22T09:25:01;100750.88;;;14.30;50.30
76460;BME280;65299;46.084;18.762;2023-02-22T09:28:01;100756.84;;;14.56;49.35
76460;BME280;65299;46.084;18.762;2023-02-22T09:31:01;100755.03;;;14.46;49.93
76460;BME280;65299;46.084;18.762;2023-02-22T09:34:03;100755.34;;;14.45;49.84
76460;BME280;65299;46.084;18.762;2023-02-22T09:37:05;100750.44;;;14.57;50.22
76460;BME280;65299;46.084;18.762;2023-02-22T09:40:18;100753.50;;;14.79;49.51
76460;BME280;65299;46.084;18.762;2023-02-22T09:44:28;100748.88;;;14.84;49.14
76460;BME280;65299;46.084;18.762;2023-02-22T09:46:57;100747.13;;;15.09;48.74
76460;BME280;65299;46.084;18.762;2023-02-22T09:50:03;100744.50;;;14.98;48.76
76460;BME280;65299;46.084;18.762;2023-02-22T09:53:16;100740.97;;;14.74;48.83
76460;BME280;65299;46.084;18.762;2023-02-22T09:56:21;100738.81;;;14.76;49.58
76460;BME280;65299;46.084;18.762;2023-02-22T09:59:30;100737.59;;;15.21;49.13
76460;BME280;65299;46.084;18.762;2023-02-22T10:02:36;100736.13;;;15.39;48.25
76460;BME280;65299;46.084;18.762;2023-02-22T10:05:43;100732.63;;;15.15;48.16
76460;BME280;65299;46.084;18.762;2023-02-22T10:08:45;100734.38;;;14.95;47.51
76460;BME280;65299;46.084;18.762;2023-02-22T10:11:57;100730.81;;;15.34;46.92
76460;BME280;65299;46.084;18.762;2023-02-22T10:24:59;100721.66;;;15.40;45.76
76460;BME280;65299;46.084;18.762;2023-02-22T10:28:22;100720.63;;;15.36;45.53
76460;BME280;65299;46.084;18.762;2023-02-22T10:31:29;100706.66;;;15.67;45.04
76460;BME280;65299;46.084;18.762;2023-02-22T10:34:37;100705.34;;;15.65;45.00
76460;BME280;65299;46.084;18.762;2023-02-22T10:37:39;100700.94;;;15.74;45.01
76460;BME280;65299;46.084;18.762;2023-02-22T10:40:43;100703.13;;;15.48;46.34
76460;BME280;65299;46.084;18.762;2023-02-22T10:43:45;100693.44;;;15.76;44.74
76460;BME280;65299;46.084;18.762;2023-02-22T10:46:46;100695.41;;;15.47;45.28
76460;BME280;65299;46.084;18.762;2023-02-22T10:49:50;100693.44;;;15.76;46.96
76460;BME280;65299;46.084;18.762;2023-02-22T10:52:52;100690.78;;;15.95;45.84
76460;BME280;65299;46.084;18.762;2023-02-22T10:56:23;100687.25;;;15.99;43.94
76460;BME280;65299;46.084;18.762;2023-02-22T10:59:39;100680.69;;;16.10;44.21
76460;BME280;65299;46.084;18.762;2023-02-22T11:02:49;100677.19;;;16.10;44.66
76460;BME280;65299;46.084;18.762;2023-02-22T11:05:51;100679.88;;;16.47;43.56
76460;BME280;65299;46.084;18.762;2023-02-22T11:09:03;100668.50;;;16.36;43.75
76460;BME280;65299;46.084;18.762;2023-02-22T11:12:09;100661.97;;;16.42;42.91
76460;BME280;65299;46.084;18.762;2023-02-22T11:18:33;100664.56;;;16.66;40.83
76460;BME280;65299;46.084;18.762;2023-02-22T11:21:34;100657.28;;;16.99;40.80
76460;BME280;65299;46.084;18.762;2023-02-22T11:24:43;100660.16;;;16.56;41.37
76460;BME280;65299;46.084;18.762;2023-02-22T11:27:45;100652.28;;;16.79;41.95
76460;BME280;65299;46.084;18.762;2023-02-22T11:30:48;100650.06;;;17.13;40.69
76460;BME280;65299;46.084;18.762;2023-02-22T11:33:54;100644.56;;;17.04;40.88
76460;BME280;65299;46.084;18.762;2023-02-22T11:36:55;100645.75;;;16.85;41.94
76460;BME280;65299;46.084;18.762;2023-02-22T11:40:18;100644.09;;;17.16;41.56
76460;BME280;65299;46.084;18.762;2023-02-22T11:43:21;100637.81;;;16.80;41.81
76460;BME280;65299;46.084;18.762;2023-02-22T11:46:24;100639.63;;;17.38;40.96
76460;BME280;65299;46.084;18.762;2023-02-22T11:49:35;100629.59;;;17.71;40.00
76460;BME280;65299;46.084;18.762;2023-02-22T11:52:43;100631.09;;;17.50;40.52
76460;BME280;65299;46.084;18.762;2023-02-22T12:09:38;100617.94;;;17.76;38.47
76460;BME280;65299;46.084;18.762;2023-02-22T12:19:18;100610.91;;;17.25;39.42
76460;BME280;65299;46.084;18.762;2023-02-22T12:22:36;100606.03;;;17.41;39.26
76460;BME280;65299;46.084;18.762;2023-02-22T12:25:42;100599.66;;;18.00;37.92
76460;BME280;65299;46.084;18.762;2023-02-22T12:31:54;100592.50;;;17.73;39.29
76460;BME280;65299;46.084;18.762;2023-02-22T12:35:02;100588.41;;;17.98;38.92
76460;BME280;65299;46.084;18.762;2023-02-22T12:38:13;100587.16;;;17.95;38.81
76460;BME280;65299;46.084;18.762;2023-02-22T12:41:29;100584.22;;;17.83;38.85
76460;BME280;65299;46.084;18.762;2023-02-22T12:44:34;100583.56;;;17.64;38.88
76460;BME280;65299;46.084;18.762;2023-02-22T12:47:50;100579.94;;;17.82;38.60
76460;BME280;65299;46.084;18.762;2023-02-22T12:50:57;100578.63;;;17.80;38.64
76460;BME280;65299;46.084;18.762;2023-02-22T12:57:23;100573.81;;;18.04;38.95
76460;BME280;65299;46.084;18.762;2023-02-22T13:03:38;100563.72;;;17.38;39.58
76460;BME280;65299;46.084;18.762;2023-02-22T13:10:06;100570.88;;;17.42;40.33
76460;BME280;65299;46.084;18.762;2023-02-22T13:13:18;100569.88;;;17.38;39.51
76460;BME280;65299;46.084;18.762;2023-02-22T13:19:45;100567.53;;;17.10;39.87
76460;BME280;65299;46.084;18.762;2023-02-22T13:29:16;100564.03;;;17.09;39.53
76460;BME280;65299;46.084;18.762;2023-02-22T13:33:11;100571.97;;;17.14;40.17
76460;BME280;65299;46.084;18.762;2023-02-22T13:52:49;100566.03;;;17.17;40.45
76460;BME280;65299;46.084;18.762;2023-02-22T13:55:54;100562.84;;;17.15;40.61
76460;BME280;65299;46.084;18.762;2023-02-22T13:58:58;100561.75;;;17.03;40.36
76460;BME280;65299;46.084;18.762;2023-02-22T14:02:01;100560.06;;;17.07;40.47
76460;BME280;65299;46.084;18.762;2023-02-22T14:15:12;100555.75;;;17.33;39.89
76460;BME280;65299;46.084;18.762;2023-02-22T14:18:16;100552.06;;;17.56;39.36
76460;BME280;65299;46.084;18.762;2023-02-22T14:21:21;100546.72;;;17.42;39.67
76460;BME280;65299;46.084;18.762;2023-02-22T14:24:21;100547.25;;;17.17;39.73
76460;BME280;65299;46.084;18.762;2023-02-22T14:27:22;100545.88;;;16.93;40.24
76460;BME280;65299;46.084;18.762;2023-02-22T14:30:28;100542.50;;;16.87;40.50
76460;BME280;65299;46.084;18.762;2023-02-22T14:33:53;100542.88;;;16.94;40.77
76460;BME280;65299;46.084;18.762;2023-02-22T14:36:57;100547.75;;;17.06;40.53
76460;BME280;65299;46.084;18.762;2023-02-22T14:40:22;100539.72;;;16.65;41.57
76460;BME280;65299;46.084;18.762;2023-02-22T14:43:25;100541.16;;;16.57;41.87
76460;BME280;65299;46.084;18.762;2023-02-22T14:46:29;100540.97;;;16.22;42.62
76460;BME280;65299;46.084;18.762;2023-02-22T14:49:43;100535.38;;;16.37;42.04
76460;BME280;65299;46.084;18.762;2023-02-22T14:53:45;100543.19;;;16.33;42.06
76460;BME280;65299;46.084;18.762;2023-02-22T14:56:27;100541.16;;;16.12;42.59
76460;BME280;65299;46.084;18.762;2023-02-22T14:59:29;100536.50;;;16.17;42.65
76460;BME280;65299;46.084;18.762;2023-02-22T15:02:37;100536.31;;;16.27;42.56
76460;BME280;65299;46.084;18.762;2023-02-22T15:05:40;100536.78;;;16.16;43.33
76460;BME280;65299;46.084;18.762;2023-02-22T15:08:41;100541.16;;;16.12;43.16
76460;BME280;65299;46.084;18.762;2023-02-22T15:11:48;100548.72;;;16.23;43.37
76460;BME280;65299;46.084;18.762;2023-02-22T15:14:48;100543.06;;;16.25;43.24
76460;BME280;65299;46.084;18.762;2023-02-22T15:17:54;100543.22;;;15.83;44.33
76460;BME280;65299;46.084;18.762;2023-02-22T15:21:03;100541.91;;;15.80;44.46
76460;BME280;65299;46.084;18.762;2023-02-22T15:24:05;100545.75;;;15.74;44.62
76460;BME280;65299;46.084;18.762;2023-02-22T15:27:13;100541.53;;;15.31;45.42
76460;BME280;65299;46.084;18.762;2023-02-22T15:30:26;100535.19;;;15.64;44.79
76460;BME280;65299;46.084;18.762;2023-02-22T15:33:28;100533.91;;;15.43;45.34
76460;BME280;65299;46.084;18.762;2023-02-22T15:36:30;100539.06;;;15.34;45.70
76460;BME280;65299;46.084;18.762;2023-02-22T15:39:32;100533.03;;;15.24;45.64
76460;BME280;65299;46.084;18.762;2023-02-22T15:42:45;100534.41;;;15.21;45.94
76460;BME280;65299;46.084;18.762;2023-02-22T15:45:46;100528.47;;;15.06;46.12
76460;BME280;65299;46.084;18.762;2023-02-22T15:49:06;100532.09;;;14.91;46.57
76460;BME280;65299;46.084;18.762;2023-02-22T15:52:27;100526.53;;;14.87;46.49
76460;BME280;65299;46.084;18.762;2023-02-22T15:55:34;100529.44;;;14.91;46.85
76460;BME280;65299;46.084;18.762;2023-02-22T15:58:35;100529.03;;;14.79;46.90
76460;BME280;65299;46.084;18.762;2023-02-22T16:01:42;100530.91;;;14.78;47.17
76460;BME280;65299;46.084;18.762;2023-02-22T16:04:44;100524.81;;;14.49;47.83
76460;BME280;65299;46.084;18.762;2023-02-22T16:07:48;100522.66;;;14.51;48.19
76460;BME280;65299;46.084;18.762;2023-02-22T16:10:56;100529.69;;;14.42;48.26
76460;BME280;65299;46.084;18.762;2023-02-22T16:14:03;100533.97;;;14.43;48.72
76460;BME280;65299;46.084;18.762;2023-02-22T16:17:32;100522.34;;;14.24;48.84
76460;BME280;65299;46.084;18.762;2023-02-22T16:20:34;100520.31;;;14.11;49.15
76460;BME280;65299;46.084;18.762;2023-02-22T16:33:20;100528.81;;;13.46;52.07
76460;BME280;65299;46.084;18.762;2023-02-22T16:36:23;100529.69;;;13.31;52.31
76460;BME280;65299;46.084;18.762;2023-02-22T16:39:34;100527.66;;;13.13;52.80
76460;BME280;65299;46.084;18.762;2023-02-22T16:42:36;100533.25;;;13.01;53.35
76460;BME280;65299;46.084;18.762;2023-02-22T16:45:36;100530.63;;;12.91;53.48
76460;BME280;65299;46.084;18.762;2023-02-22T16:48:41;100537.06;;;12.80;53.74
76460;BME280;65299;46.084;18.762;2023-02-22T16:51:46;100538.41;;;12.73;54.42
76460;BME280;65299;46.084;18.762;2023-02-22T16:54:49;100542.13;;;12.67;54.66
76460;BME280;65299;46.084;18.762;2023-02-22T16:57:55;100540.06;;;12.43;55.08
76460;BME280;65299;46.084;18.762;2023-02-22T17:00:56;100532.66;;;12.25;55.55
76460;BME280;65299;46.084;18.762;2023-02-22T17:03:56;100540.88;;;12.24;55.81
76460;BME280;65299;46.084;18.762;2023-02-22T17:06:57;100543.84;;;12.07;56.31
76460;BME280;65299;46.084;18.762;2023-02-22T17:09:58;100541.97;;;12.03;56.27
76460;BME280;65299;46.084;18.762;2023-02-22T17:12:59;100545.97;;;12.05;56.33
76460;BME280;65299;46.084;18.762;2023-02-22T17:16:00;100556.31;;;11.87;56.61
76460;BME280;65299;46.084;18.762;2023-02-22T17:19:00;100553.84;;;11.60;57.08
76460;BME280;65299;46.084;18.762;2023-02-22T17:22:04;100556.19;;;11.56;57.50
76460;BME280;65299;46.084;18.762;2023-02-22T17:25:18;100551.63;;;11.37;57.77
76460;BME280;65299;46.084;18.762;2023-02-22T17:28:21;100551.88;;;11.25;57.99
76460;BME280;65299;46.084;18.762;2023-02-22T17:31:25;100554.25;;;11.22;58.10
76460;BME280;65299;46.084;18.762;2023-02-22T17:34:26;100551.88;;;11.30;57.91
76460;BME280;65299;46.084;18.762;2023-02-22T17:37:27;100552.13;;;11.19;58.19
76460;BME280;65299;46.084;18.762;2023-02-22T17:40:27;100546.72;;;10.99;58.37
76460;BME280;65299;46.084;18.762;2023-02-22T17:43:28;100547.53;;;11.04;57.79
76460;BME280;65299;46.084;18.762;2023-02-22T17:46:28;100554.19;;;11.12;57.81
76460;BME280;65299;46.084;18.762;2023-02-22T17:49:29;100557.59;;;10.97;58.21
76460;BME280;65299;46.084;18.762;2023-02-22T17:52:29;100552.53;;;10.91;58.32
76460;BME280;65299;46.084;18.762;2023-02-22T17:55:30;100552.66;;;10.69;58.78
76460;BME280;65299;46.084;18.762;2023-02-22T17:58:33;100548.63;;;10.61;58.74
76460;BME280;65299;46.084;18.762;2023-02-22T18:01:34;100546.47;;;10.53;59.11
76460;BME280;65299;46.084;18.762;2023-02-22T18:04:34;100538.56;;;10.22;60.06
76460;BME280;65299;46.084;18.762;2023-02-22T18:07:36;100547.47;;;10.11;60.25
76460;BME280;65299;46.084;18.762;2023-02-22T18:10:36;100540.06;;;10.13;59.98
76460;BME280;65299;46.084;18.762;2023-02-22T18:13:36;100543.25;;;10.15;60.06
76460;BME280;65299;46.084;18.762;2023-02-22T18:16:37;100540.63;;;10.15;59.72